Time;durP1;ratioP1;P1;durP2;ratioP2;P2;SDS_P1;SDS_P2;PMS_P1;PMS_P2;Temp;Humidity;BMP_temperature;BMP_pressure;BME280_temperature;BME280_humidity;BME280_pressure;Samples;Min_cycle;Max_cycle;Signal;HPM_P1;HPM_P2
2023/03/13 00:00:15;;;;;;;16.60;8.80;;;;;;;1.94;100.00;99705.87;214241;1288;139032;-86
2023/03/13 00:05:16;;;;;;;17.40;9.40;;;;;;;1.96;100.00;99709.82;214796;1293;138914;-87
2023/03/13 00:10:17;;;;;;;19.30;10.70;;;;;;;1.98;100.00;99709.19;214449;1289;139800;-88
2023/03/13 00:15:17;;;;;;;22.10;9.70;;;;;;;2.00;100.00;99702.19;214849;1289;139594;-88
2023/03/13 00:20:18;;;;;;;18.70;9.60;;;;;;;2.03;100.00;99703.75;214434;1288;139462;-88
2023/03/13 00:25:18;;;;;;;18.80;10.30;;;;;;;2.07;100.00;99708.78;214543;1294;138604;-86
2023/03/13 00:30:19;;;;;;;20.70;11.30;;;;;;;2.09;100.00;99710.54;214234;1288;138887;-87
2023/03/13 00:35:20;;;;;;;21.20;11.30;;;;;;;2.09;100.00;99711.62;214854;1291;138809;-86
2023/03/13 00:40:20;;;;;;;23.40;13.50;;;;;;;2.10;100.00;99699.58;214325;1291;138448;-86
2023/03/13 00:45:21;;;;;;;19.40;10.90;;;;;;;2.11;100.00;99686.59;214753;1293;139234;-86
2023/03/13 00:50:22;;;;;;;21.70;11.40;;;;;;;2.15;100.00;99682.05;214133;1288;139685;-88
2023/03/13 00:55:22;;;;;;;25.10;13.50;;;;;;;2.18;100.00;99677.81;214786;1288;139668;-85
2023/03/13 01:00:23;;;;;;;24.30;13.80;;;;;;;2.23;100.00;99678.77;214201;1289;139183;-87
2023/03/13 01:05:24;;;;;;;23.80;13.50;;;;;;;2.29;100.00;99679.02;214861;1293;139163;-86
2023/03/13 01:10:24;;;;;;;26.60;14.20;;;;;;;2.35;100.00;99671.36;214479;1289;139221;-88
2023/03/13 01:15:25;;;;;;;27.60;15.60;;;;;;;2.41;100.00;99675.43;214582;1288;139618;-88
2023/03/13 01:20:27;;;;;;;30.70;16.50;;;;;;;2.47;100.00;99670.58;214250;1288;138948;-87
2023/03/13 01:25:28;;;;;;;29.50;16.90;;;;;;;2.52;100.00;99669.64;214764;1288;138763;-86
2023/03/13 01:30:29;;;;;;;30.00;17.80;;;;;;;2.55;100.00;99676.89;214099;1289;139429;-87
2023/03/13 01:35:29;;;;;;;29.40;17.40;;;;;;;2.59;100.00;99661.42;214712;1291;138898;-86
2023/03/13 01:40:30;;;;;;;29.60;17.10;;;;;;;2.63;100.00;99655.73;214341;1291;138773;-86
2023/03/13 01:45:52;;;;;;;37.50;19.40;;;;;;;2.72;100.00;99652.73;214682;1293;138722;-87
2023/03/13 01:50:55;;;;;;;35.90;18.90;;;;;;;2.79;100.00;99651.06;214326;1289;138591;-86
2023/03/13 01:55:56;;;;;;;32.00;17.50;;;;;;;2.84;100.00;99656.73;214813;1292;139930;-89
2023/03/13 02:00:59;;;;;;;35.70;19.10;;;;;;;2.90;100.00;99656.13;214533;1289;139338;-88
2023/03/13 02:06:05;;;;;;;36.00;19.60;;;;;;;2.97;100.00;99651.82;214190;1289;139176;-87
2023/03/13 02:11:23;;;;;;;40.40;19.60;;;;;;;3.03;100.00;99655.80;214882;1289;97966;-88
2023/03/13 02:16:25;;;;;;;35.80;19.80;;;;;;;3.09;100.00;99657.75;214416;1289;139121;-87
2023/03/13 02:21:31;;;;;;;33.90;18.60;;;;;;;3.14;100.00;99650.84;214782;1293;138532;-87
2023/03/13 02:26:31;;;;;;;36.80;19.80;;;;;;;3.20;100.00;99645.25;214471;1289;138666;-86
2023/03/13 02:31:32;;;;;;;36.50;20.60;;;;;;;3.27;100.00;99637.91;214973;1289;138682;-87
2023/03/13 02:36:33;;;;;;;31.40;18.30;;;;;;;3.32;100.00;99633.23;214391;1292;139139;-86
2023/03/13 02:41:34;;;;;;;29.50;17.00;;;;;;;3.39;100.00;99643.12;214779;1289;140446;-88
2023/03/13 02:46:49;;;;;;;33.90;18.40;;;;;;;3.44;100.00;99640.17;214448;1288;139189;-88
2023/03/13 02:51:50;;;;;;;35.90;19.80;;;;;;;3.49;100.00;99634.32;214852;1294;138588;-86
2023/03/13 02:56:55;;;;;;;32.70;17.80;;;;;;;3.54;100.00;99635.38;214188;1293;139355;-87
2023/03/13 03:01:55;;;;;;;29.90;17.00;;;;;;;3.58;100.00;99636.94;214985;1292;139550;-87
2023/03/13 03:06:56;;;;;;;31.50;17.40;;;;;;;3.62;100.00;99639.77;214427;1289;139126;-87
2023/03/13 03:11:56;;;;;;;30.00;16.60;;;;;;;3.65;100.00;99645.91;214987;1294;138867;-87
2023/03/13 03:16:57;;;;;;;27.80;15.60;;;;;;;3.68;100.00;99641.63;214644;1291;139321;-86
2023/03/13 03:21:57;;;;;;;30.30;17.80;;;;;;;3.70;100.00;99635.39;214953;1292;138515;-86
2023/03/13 03:26:58;;;;;;;29.30;15.40;;;;;;;3.74;100.00;99628.67;214302;1290;139329;-87
2023/03/13 03:31:59;;;;;;;26.80;13.80;;;;;;;3.78;100.00;99619.48;214746;1294;141123;-87
2023/03/13 03:36:59;;;;;;;30.40;15.00;;;;;;;3.81;100.00;99615.36;214399;1289;139655;-87
2023/03/13 03:42:00;;;;;;;24.90;14.40;;;;;;;3.85;100.00;99619.45;214709;1289;139338;-87
2023/03/13 03:47:00;;;;;;;26.80;13.00;;;;;;;3.89;100.00;99612.93;214376;1289;138882;-87
2023/03/13 03:52:01;;;;;;;27.20;14.40;;;;;;;3.92;100.00;99609.84;214719;1294;139197;-86
2023/03/13 03:57:01;;;;;;;23.90;13.00;;;;;;;3.97;100.00;99606.61;214102;1294;138861;-87
2023/03/13 04:02:02;;;;;;;26.40;12.80;;;;;;;4.00;100.00;99598.58;214637;1289;139330;-86
2023/03/13 04:07:03;;;;;;;26.10;13.50;;;;;;;4.05;100.00;99590.13;214338;1293;139359;-87
2023/03/13 04:12:04;;;;;;;23.10;12.40;;;;;;;4.09;100.00;99586.02;214657;1290;262122;-87
2023/03/13 04:17:05;;;;;;;23.90;12.10;;;;;;;4.15;100.00;99580.35;214268;1294;139313;-86
2023/03/13 04:22:06;;;;;;;23.70;11.80;;;;;;;4.22;100.00;99575.14;214762;1289;140356;-86
2023/03/13 04:27:06;;;;;;;23.00;11.50;;;;;;;4.27;100.00;99571.81;214026;1291;139187;-87
2023/03/13 04:32:06;;;;;;;23.90;11.60;;;;;;;4.33;100.00;99559.50;214760;1289;138809;-87
2023/03/13 04:37:07;;;;;;;22.20;11.10;;;;;;;4.38;100.00;99553.15;214090;1295;139186;-87
2023/03/13 04:42:10;;;;;;;20.30;10.60;;;;;;;4.42;100.00;99547.86;214684;1289;139550;-87
2023/03/13 04:47:10;;;;;;;23.60;10.10;;;;;;;4.45;100.00;99552.14;214799;1289;138772;-87
2023/03/13 04:52:11;;;;;;;17.60;8.90;;;;;;;4.48;100.00;99539.98;214886;1295;138409;-87
2023/03/13 04:57:12;;;;;;;21.40;9.50;;;;;;;4.49;100.00;99539.38;214515;1289;139264;-88
2023/03/13 05:02:13;;;;;;;24.80;10.20;;;;;;;4.50;100.00;99547.34;214942;1292;138512;-87
2023/03/13 05:07:14;;;;;;;23.20;11.30;;;;;;;4.51;100.00;99542.20;214503;1289;138662;-87
2023/03/13 05:12:14;;;;;;;21.60;9.40;;;;;;;4.51;100.00;99540.12;215010;1294;140318;-86
2023/03/13 05:17:16;;;;;;;20.20;9.80;;;;;;;4.52;100.00;99533.43;214431;1289;138413;-87
2023/03/13 05:22:17;;;;;;;19.30;9.30;;;;;;;4.54;100.00;99530.77;215283;1295;138250;-88
2023/03/13 05:27:17;;;;;;;23.00;10.10;;;;;;;4.59;100.00;99524.65;214454;1288;138573;-89
2023/03/13 05:32:17;;;;;;;25.00;9.60;;;;;;;4.66;100.00;99522.59;215053;1291;140529;-87
2023/03/13 05:37:18;;;;;;;17.30;9.10;;;;;;;4.73;100.00;99523.91;214517;1288;139109;-88
2023/03/13 05:42:19;;;;;;;22.10;10.10;;;;;;;4.82;100.00;99518.09;215026;1290;138700;-89
2023/03/13 05:47:19;;;;;;;23.80;10.70;;;;;;;4.90;100.00;99512.62;214616;1289;139100;-88
2023/03/13 05:52:20;;;;;;;21.50;10.10;;;;;;;4.97;100.00;99507.02;214978;1288;99326;-84
2023/03/13 05:57:21;;;;;;;23.50;9.80;;;;;;;5.04;100.00;99494.13;214446;1289;139188;-87
2023/03/13 06:02:21;;;;;;;19.60;9.00;;;;;;;5.12;100.00;99486.70;214998;1289;139270;-87
2023/03/13 06:07:22;;;;;;;18.90;8.10;;;;;;;5.20;100.00;99482.31;215123;1289;139114;-87
2023/03/13 06:12:22;;;;;;;21.90;9.00;;;;;;;5.28;100.00;99477.84;215566;1288;139838;-88
2023/03/13 06:17:24;;;;;;;18.50;7.50;;;;;;;5.37;100.00;99471.62;214611;1289;139990;-88
2023/03/13 06:22:24;;;;;;;17.30;7.70;;;;;;;5.47;100.00;99464.38;215141;1288;98014;-89
2023/03/13 06:27:25;;;;;;;19.40;8.40;;;;;;;5.59;100.00;99457.00;214359;1288;138931;-88
2023/03/13 06:32:26;;;;;;;23.30;10.30;;;;;;;5.70;100.00;99452.88;215017;1288;139041;-90
2023/03/13 06:37:27;;;;;;;20.70;10.30;;;;;;;5.83;100.00;99446.21;214493;1288;139435;-91
2023/03/13 06:42:27;;;;;;;28.30;11.00;;;;;;;5.94;100.00;99438.50;215086;1288;138736;-90
2023/03/13 06:47:31;;;;;;;29.40;10.20;;;;;;;6.05;100.00;99438.10;214577;1292;139456;-90
2023/03/13 06:52:32;;;;;;;20.50;9.20;;;;;;;6.14;100.00;99424.02;215264;1291;97982;-90
2023/03/13 06:57:32;;;;;;;20.60;10.20;;;;;;;6.23;100.00;99422.42;214733;1289;139313;-91
2023/03/13 07:02:32;;;;;;;23.10;10.30;;;;;;;6.32;100.00;99415.89;215314;1289;139613;-91
2023/03/13 07:07:34;;;;;;;21.10;10.50;;;;;;;6.41;100.00;99409.42;214642;1288;139813;-91
2023/03/13 07:12:34;;;;;;;26.20;10.30;;;;;;;6.51;100.00;99398.14;215391;1293;139291;-91
2023/03/13 07:17:35;;;;;;;28.50;11.60;;;;;;;6.63;100.00;99392.71;214693;1289;139205;-90
2023/03/13 07:22:36;;;;;;;21.20;8.90;;;;;;;6.74;100.00;99382.52;215201;1288;97947;-89
2023/03/13 07:27:37;;;;;;;23.10;10.10;;;;;;;6.84;100.00;99383.09;214485;1288;138677;-90
2023/03/13 07:32:38;;;;;;;24.40;8.80;;;;;;;6.94;100.00;99379.19;215003;1288;138874;-92
2023/03/13 07:37:38;;;;;;;20.90;8.10;;;;;;;7.03;100.00;99376.61;214402;1289;139589;-92
2023/03/13 07:42:40;;;;;;;28.30;9.90;;;;;;;7.11;100.00;99367.52;215268;1288;138571;-90
2023/03/13 07:47:41;;;;;;;22.00;9.20;;;;;;;7.20;100.00;99364.70;214464;1288;139270;-91
2023/03/13 07:52:41;;;;;;;24.00;10.80;;;;;;;7.30;100.00;99352.49;215351;1288;97882;-90
2023/03/13 07:57:42;;;;;;;24.50;10.20;;;;;;;7.40;100.00;99348.10;214749;1288;139885;-90
2023/03/13 08:02:42;;;;;;;23.40;8.00;;;;;;;7.50;100.00;99339.95;214960;1289;139503;-90
2023/03/13 08:07:43;;;;;;;26.60;8.90;;;;;;;7.59;100.00;99332.73;214479;1288;139441;-90
2023/03/13 08:12:44;;;;;;;23.40;8.30;;;;;;;7.69;100.00;99323.08;215477;1289;142313;-91
2023/03/13 08:17:45;;;;;;;24.30;8.30;;;;;;;7.78;100.00;99315.84;214972;1289;139360;-90
2023/03/13 08:22:45;;;;;;;25.30;10.30;;;;;;;7.86;100.00;99305.63;215436;1290;99262;-89
2023/03/13 08:27:46;;;;;;;24.50;9.10;;;;;;;7.95;100.00;99297.76;214675;1288;139856;-89
2023/03/13 08:32:47;;;;;;;23.50;9.10;;;;;;;8.01;100.00;99293.16;214346;1288;138485;-90
2023/03/13 08:37:47;;;;;;;22.90;8.10;;;;;;;8.09;100.00;99288.63;213684;1294;139353;-91
2023/03/13 08:42:48;;;;;;;24.70;9.40;;;;;;;8.17;100.00;99283.81;214410;1292;138469;-92
2023/03/13 08:47:52;;;;;;;19.60;7.20;;;;;;;8.26;100.00;99263.64;213645;1289;139168;-91
2023/03/13 08:52:53;;;;;;;24.10;8.10;;;;;;;8.33;100.00;99251.20;214211;1289;99265;-88
2023/03/13 08:57:53;;;;;;;21.00;7.70;;;;;;;8.39;100.00;99251.52;214076;1288;141761;-91
2023/03/13 09:02:56;;;;;;;22.50;7.90;;;;;;;8.44;100.00;99250.83;214289;1290;138838;-88
2023/03/13 09:07:57;;;;;;;28.90;8.10;;;;;;;8.50;100.00;99236.18;214005;1288;140108;-88
2023/03/13 09:12:57;;;;;;;24.80;8.60;;;;;;;8.53;100.00;99226.23;214536;1294;139764;-88
2023/03/13 09:17:57;;;;;;;23.90;8.60;;;;;;;8.58;100.00;99213.30;213962;1289;138861;-90
2023/03/13 09:22:58;;;;;;;21.60;8.40;;;;;;;8.62;100.00;99196.92;214469;1289;97966;-87
2023/03/13 09:27:58;;;;;;;25.40;8.90;;;;;;;8.68;100.00;99182.50;214010;1291;138521;-88
2023/03/13 09:32:59;;;;;;;22.20;7.20;;;;;;;8.76;100.00;99177.07;214566;1290;138304;-92
2023/03/13 09:37:59;;;;;;;23.10;7.70;;;;;;;8.85;100.00;99174.55;214160;1289;139421;-92
2023/03/13 09:43:00;;;;;;;21.10;7.80;;;;;;;8.91;100.00;99160.59;214551;1288;138951;-91
2023/03/13 09:48:31;;;;;;;25.40;8.70;;;;;;;8.94;100.00;99156.35;214009;1289;139028;-91
2023/03/13 09:53:44;;;;;;;20.40;7.20;;;;;;;8.96;100.00;99141.05;214744;1289;138829;-91
2023/03/13 09:58:56;;;;;;;23.90;8.30;;;;;;;8.97;100.00;99149.66;214235;1292;139255;-92
2023/03/13 10:04:17;;;;;;;25.60;8.60;;;;;;;8.98;100.00;99151.31;214018;1292;138389;-90
2023/03/13 10:09:23;;;;;;;22.70;8.70;;;;;;;9.00;100.00;99144.09;213462;1290;138892;-88
2023/03/13 10:14:41;;;;;;;21.30;8.10;;;;;;;9.02;100.00;99131.70;214478;1288;139537;-90
2023/03/13 10:19:42;;;;;;;27.80;8.60;;;;;;;9.04;100.00;99123.69;213805;1293;138614;-90
2023/03/13 10:24:57;;;;;;;24.30;8.30;;;;;;;9.03;100.00;99117.19;215154;1289;138650;-89
2023/03/13 10:29:57;;;;;;;23.40;10.20;;;;;;;9.02;100.00;99110.70;214215;1292;141354;-87
2023/03/13 10:34:59;;;;;;;27.40;9.60;;;;;;;8.99;100.00;99110.00;214767;1290;98060;-86
2023/03/13 10:40:18;;;;;;;22.60;9.60;;;;;;;8.97;100.00;99104.36;214348;1288;139328;-88
2023/03/13 10:45:21;;;;;;;24.80;8.80;;;;;;;8.95;100.00;99091.43;214349;1288;138369;-86
2023/03/13 10:50:24;;;;;;;20.60;9.00;;;;;;;8.94;100.00;99087.98;213780;1288;139693;-87
2023/03/13 10:55:25;;;;;;;23.00;10.30;;;;;;;8.92;100.00;99080.85;214383;1292;138521;-88
2023/03/13 11:00:36;;;;;;;24.30;9.50;;;;;;;8.91;100.00;99074.98;213772;1288;140477;-87
2023/03/13 11:05:42;;;;;;;30.10;11.50;;;;;;;8.88;100.00;99067.16;214668;1288;139147;-88
2023/03/13 11:11:16;;;;;;;31.10;11.80;;;;;;;8.86;100.00;99068.18;213884;1291;141363;-88
2023/03/13 11:16:25;;;;;;;25.60;11.30;;;;;;;8.87;100.00;99057.52;214515;1288;139214;-88
2023/03/13 11:22:04;;;;;;;28.30;12.50;;;;;;;8.89;100.00;99044.20;214403;1290;138623;-89
2023/03/13 11:27:19;;;;;;;27.10;10.60;;;;;;;8.89;100.00;99045.91;213833;1289;140185;-89
2023/03/13 11:32:39;;;;;;;28.50;11.60;;;;;;;8.88;100.00;99041.92;214413;1288;138945;-90
2023/03/13 11:37:42;;;;;;;27.30;11.20;;;;;;;8.87;100.00;99036.99;213716;1288;139162;-87
2023/03/13 11:42:59;;;;;;;28.00;11.50;;;;;;;8.87;100.00;99028.05;214518;1293;138998;-87
2023/03/13 11:48:08;;;;;;;30.20;11.50;;;;;;;8.87;100.00;99028.06;214061;1293;139766;-88
2023/03/13 11:53:27;;;;;;;21.90;10.70;;;;;;;8.88;100.00;99020.99;214788;1291;105335;-87
2023/03/13 11:58:45;;;;;;;26.40;10.90;;;;;;;8.90;100.00;99026.46;213957;1291;139208;-88
2023/03/13 12:04:16;;;;;;;22.80;10.90;;;;;;;8.92;100.00;99013.92;214164;1288;139299;-88
2023/03/13 12:09:19;;;;;;;23.70;11.60;;;;;;;8.94;100.00;99002.70;213661;1291;139061;-87
2023/03/13 12:15:00;;;;;;;21.80;10.70;;;;;;;8.97;100.00;98997.03;214931;1288;138989;-87
2023/03/13 12:20:24;;;;;;;22.00;9.90;;;;;;;9.01;100.00;98989.48;214036;1289;139049;-88
2023/03/13 12:25:31;;;;;;;21.40;10.70;;;;;;;9.04;100.00;98982.09;214502;1293;140513;-88
2023/03/13 12:30:42;;;;;;;22.30;10.90;;;;;;;9.07;100.00;98971.89;213384;1288;138733;-89
2023/03/13 12:35:57;;;;;;;22.80;11.30;;;;;;;9.11;100.00;98970.70;214094;1292;140316;-89
2023/03/13 12:41:09;;;;;;;22.70;11.30;;;;;;;9.15;100.00;98961.17;213851;1288;139184;-89
2023/03/13 12:46:36;;;;;;;22.60;11.40;;;;;;;9.21;100.00;98955.48;213394;1291;139485;-89
2023/03/13 12:51:42;;;;;;;21.10;10.50;;;;;;;9.27;100.00;98949.88;214121;1288;139757;-89
2023/03/13 12:56:46;;;;;;;20.70;9.30;;;;;;;9.32;100.00;98940.96;213349;1288;140535;-89
2023/03/13 13:01:53;;;;;;;17.20;8.40;;;;;;;9.37;100.00;98929.55;213988;1290;138492;-89
2023/03/13 13:07:02;;;;;;;21.80;9.40;;;;;;;9.42;100.00;98916.65;213708;1288;140238;-85
2023/03/13 13:12:18;;;;;;;17.70;8.80;;;;;;;9.46;100.00;98913.48;214114;1292;138614;-87
2023/03/13 13:17:32;;;;;;;21.20;8.80;;;;;;;9.50;100.00;98905.60;213534;1292;138305;-88
2023/03/13 13:22:35;;;;;;;19.60;8.20;;;;;;;9.55;100.00;98895.05;214154;1292;110662;-88
2023/03/13 13:27:35;;;;;;;20.80;8.10;;;;;;;9.61;100.00;98893.49;213656;1289;138929;-89
2023/03/13 13:32:42;;;;;;;18.50;9.00;;;;;;;9.67;100.00;98890.67;216851;1288;139397;-89
2023/03/13 13:37:43;;;;;;;20.90;7.50;;;;;;;9.77;100.00;98889.80;217209;1289;139691;-89
2023/03/13 13:42:49;;;;;;;16.90;6.90;;;;;;;9.90;100.00;98888.01;214135;1288;139043;-88
2023/03/13 13:47:50;;;;;;;17.50;7.00;;;;;;;10.04;100.00;98880.88;213367;1290;140409;-88
2023/03/13 13:52:51;;;;;;;19.50;7.40;;;;;;;10.16;100.00;98864.73;214119;1292;97902;-89
2023/03/13 13:58:03;;;;;;;16.00;7.10;;;;;;;10.27;100.00;98868.44;213501;1288;139364;-90
2023/03/13 14:03:17;;;;;;;19.10;7.50;;;;;;;10.38;100.00;98871.91;214168;1291;140053;-89
2023/03/13 14:08:32;;;;;;;19.80;7.40;;;;;;;10.46;100.00;98875.42;213666;1288;139428;-90
2023/03/13 14:13:33;;;;;;;18.10;7.40;;;;;;;10.54;100.00;98865.95;214614;1289;139478;-89
2023/03/13 14:18:33;;;;;;;15.10;7.00;;;;;;;10.62;100.00;98859.06;213717;1289;140304;-87
2023/03/13 14:23:41;;;;;;;16.30;7.70;;;;;;;10.71;100.00;98862.73;214120;1288;139316;-90
2023/03/13 14:28:45;;;;;;;14.80;7.20;;;;;;;10.78;100.00;98860.02;213636;1289;140847;-90
2023/03/13 14:33:45;;;;;;;13.80;6.30;;;;;;;10.87;100.00;98859.98;214163;1291;139301;-89
2023/03/13 14:39:00;;;;;;;16.50;7.00;;;;;;;10.99;100.00;98852.00;213358;1291;139311;-91
2023/03/13 14:44:06;;;;;;;15.20;6.70;;;;;;;11.10;100.00;98850.78;214529;1289;139229;-89
2023/03/13 14:49:30;;;;;;;15.30;6.60;;;;;;;11.21;100.00;98842.90;213743;1288;139595;-86
2023/03/13 14:54:35;;;;;;;18.20;6.80;;;;;;;11.29;100.00;98838.35;214077;1291;140478;-89
2023/03/13 14:59:36;;;;;;;12.30;6.30;;;;;;;11.38;100.00;98834.88;213689;1288;139710;-90
2023/03/13 15:05:03;;;;;;;18.30;7.60;;;;;;;11.47;100.00;98837.48;214131;1288;98949;-90
2023/03/13 15:10:22;;;;;;;14.40;6.60;;;;;;;11.58;100.00;98841.16;213847;1288;140575;-88
2023/03/13 15:15:23;;;;;;;15.80;6.90;;;;;;;11.70;100.00;98844.33;214022;1289;140619;-92
2023/03/13 15:20:24;;;;;;;13.70;6.50;;;;;;;11.76;100.00;98838.63;213802;1293;139539;-89
2023/03/13 15:25:24;;;;;;;15.70;6.80;;;;;;;11.76;100.00;98840.11;213956;1291;139225;-88
2023/03/13 15:30:24;;;;;;;14.30;6.90;;;;;;;11.77;100.00;98836.09;213244;1291;139944;-90
2023/03/13 15:35:28;;;;;;;16.50;7.60;;;;;;;11.76;100.00;98827.45;214031;1289;97935;-91
2023/03/13 15:40:32;;;;;;;17.10;8.50;;;;;;;11.79;100.00;98824.16;213835;1288;138662;-89
2023/03/13 15:45:33;;;;;;;15.10;6.50;;;;;;;11.86;100.00;98824.11;213695;1288;138891;-87
2023/03/13 15:50:34;;;;;;;14.80;6.60;;;;;;;11.90;100.00;98813.40;213288;1288;139698;-91
2023/03/13 15:55:35;;;;;;;11.60;6.00;;;;;;;11.91;100.00;98804.94;213985;1289;138848;-90
2023/03/13 16:00:36;;;;;;;13.40;5.80;;;;;;;11.93;100.00;98807.88;213515;1292;139215;-89
2023/03/13 16:05:36;;;;;;;14.80;6.60;;;;;;;11.93;100.00;98807.27;214185;1289;140505;-86
2023/03/13 16:10:37;;;;;;;13.50;5.70;;;;;;;11.91;100.00;98804.23;213712;1288;282670;-89
2023/03/13 16:15:37;;;;;;;14.00;5.30;;;;;;;11.89;100.00;98797.42;213747;1288;138684;-88
2023/03/13 16:20:38;;;;;;;13.20;5.90;;;;;;;11.88;100.00;98801.31;213756;1289;138930;-91
2023/03/13 16:25:39;;;;;;;13.00;6.00;;;;;;;11.87;100.00;98803.76;213909;1288;138998;-89
2023/03/13 16:30:42;;;;;;;12.80;6.00;;;;;;;11.87;100.00;98803.83;213619;1288;139828;-90
2023/03/13 16:35:43;;;;;;;14.00;6.70;;;;;;;11.87;100.00;98804.08;214245;1290;139134;-89
2023/03/13 16:40:43;;;;;;;15.90;7.80;;;;;;;11.84;100.00;98796.34;213873;1289;139514;-90
2023/03/13 16:45:43;;;;;;;20.20;9.00;;;;;;;11.83;100.00;98799.61;213998;1291;138590;-88
2023/03/13 16:50:45;;;;;;;15.60;8.50;;;;;;;11.82;100.00;98800.80;213661;1289;139926;-87
2023/03/13 16:55:45;;;;;;;16.00;7.00;;;;;;;11.82;100.00;98806.39;214033;1289;139403;-88
2023/03/13 17:00:46;;;;;;;15.50;6.70;;;;;;;11.84;100.00;98805.88;213506;1288;138971;-88
2023/03/13 17:05:46;;;;;;;16.80;7.10;;;;;;;11.84;100.00;98804.06;214069;1289;139476;-88
2023/03/13 17:10:47;;;;;;;14.60;7.10;;;;;;;11.84;100.00;98805.08;213534;1289;139262;-88
2023/03/13 17:15:47;;;;;;;12.30;6.10;;;;;;;11.85;100.00;98799.40;214078;1289;138879;-88
2023/03/13 17:20:49;;;;;;;15.80;5.70;;;;;;;11.85;100.00;98794.13;213631;1289;139183;-87
2023/03/13 17:25:50;;;;;;;12.40;5.60;;;;;;;11.85;100.00;98794.27;214033;1294;138806;-89
2023/03/13 17:30:50;;;;;;;16.40;6.70;;;;;;;11.85;100.00;98792.39;214408;1289;138837;-89
2023/03/13 17:35:51;;;;;;;15.20;7.00;;;;;;;11.81;100.00;98786.80;214000;1289;138866;-89
2023/03/13 17:40:53;;;;;;;15.10;6.40;;;;;;;11.79;100.00;98787.63;213659;1292;140025;-89
2023/03/13 17:45:53;;;;;;;13.90;5.60;;;;;;;11.77;100.00;98787.20;214138;1289;139032;-87
2023/03/13 17:50:53;;;;;;;12.80;6.50;;;;;;;11.78;100.00;98775.91;213316;1288;139752;-87
2023/03/13 17:55:54;;;;;;;14.90;7.90;;;;;;;11.76;100.00;98772.48;214646;1291;138937;-87
2023/03/13 18:00:54;;;;;;;16.30;7.40;;;;;;;11.76;100.00;98766.41;213287;1289;138984;-88
2023/03/13 18:05:55;;;;;;;15.50;6.90;;;;;;;11.76;100.00;98754.30;213923;1289;138803;-88
2023/03/13 18:10:55;;;;;;;17.00;8.10;;;;;;;11.74;100.00;98756.07;213852;1288;138560;-89
2023/03/13 18:15:55;;;;;;;15.70;7.90;;;;;;;11.69;100.00;98750.73;214046;1291;139811;-90
2023/03/13 18:20:56;;;;;;;16.20;8.00;;;;;;;11.63;100.00;98744.33;213585;1291;139269;-88
2023/03/13 18:25:57;;;;;;;14.70;6.70;;;;;;;11.56;100.00;98747.19;213806;1293;139670;-85
2023/03/13 18:30:57;;;;;;;15.00;7.60;;;;;;;11.53;100.00;98733.65;214232;1288;138998;-91
2023/03/13 18:35:58;;;;;;;13.50;7.10;;;;;;;11.52;100.00;98731.53;213740;1289;139736;-90
2023/03/13 18:40:58;;;;;;;15.20;7.80;;;;;;;11.52;100.00;98729.41;214314;1291;97932;-88
2023/03/13 18:45:59;;;;;;;14.40;7.10;;;;;;;11.53;100.00;98726.70;214121;1291;139085;-90
2023/03/13 18:50:59;;;;;;;19.80;8.80;;;;;;;11.55;100.00;98728.40;214580;1293;138757;-89
2023/03/13 18:56:08;;;;;;;17.90;8.30;;;;;;;11.55;100.00;98713.67;213660;1289;139341;-89
2023/03/13 19:01:12;;;;;;;18.80;8.20;;;;;;;11.56;100.00;98706.98;214249;1291;140075;-89
2023/03/13 19:06:25;;;;;;;17.20;8.30;;;;;;;11.56;100.00;98722.95;213469;1293;140203;-87
2023/03/13 19:11:28;;;;;;;18.30;8.90;;;;;;;11.56;100.00;98726.17;214628;1294;112163;-90
2023/03/13 19:16:51;;;;;;;12.90;7.60;;;;;;;11.53;100.00;98715.62;213697;1288;139044;-88
2023/03/13 19:21:55;;;;;;;13.70;7.70;;;;;;;11.49;100.00;98708.06;214176;1288;138787;-90
2023/03/13 19:26:58;;;;;;;13.40;7.30;;;;;;;11.46;100.00;98709.70;213625;1289;139284;-89
2023/03/13 19:32:03;;;;;;;16.30;7.60;;;;;;;11.41;100.00;98709.00;213851;1292;139821;-90
2023/03/13 19:37:04;;;;;;;16.30;8.70;;;;;;;11.36;100.00;98707.05;214113;1289;139894;-89
2023/03/13 19:42:06;;;;;;;15.30;7.50;;;;;;;11.30;100.00;98698.73;214580;1289;139265;-90
2023/03/13 19:47:14;;;;;;;14.60;6.90;;;;;;;11.26;100.00;98697.66;213717;1288;140170;-87
2023/03/13 19:52:14;;;;;;;14.80;7.60;;;;;;;11.24;100.00;98690.70;214403;1289;140595;-89
2023/03/13 19:57:15;;;;;;;13.60;6.60;;;;;;;11.25;100.00;98671.16;214319;1292;140824;-86
2023/03/13 20:02:15;;;;;;;19.00;8.30;;;;;;;11.31;100.00;98661.05;214507;1291;139269;-89
2023/03/13 20:07:16;;;;;;;18.30;7.10;;;;;;;11.33;100.00;98655.25;213734;1289;141072;-88
2023/03/13 20:12:16;;;;;;;18.60;7.70;;;;;;;11.35;100.00;98655.31;214384;1294;139190;-90
2023/03/13 20:17:16;;;;;;;16.00;7.70;;;;;;;11.38;100.00;98643.42;213492;1290;139780;-88
2023/03/13 20:22:17;;;;;;;13.40;7.00;;;;;;;11.40;100.00;98635.68;213917;1289;139640;-88
2023/03/13 20:27:17;;;;;;;13.70;6.70;;;;;;;11.42;100.00;98636.66;213838;1292;139543;-90
2023/03/13 20:32:18;;;;;;;14.70;7.40;;;;;;;11.46;100.00;98644.61;213988;1288;138870;-89
2023/03/13 20:37:19;;;;;;;13.00;6.90;;;;;;;11.47;100.00;98641.91;213155;1289;139673;-88
2023/03/13 20:42:21;;;;;;;14.90;7.00;;;;;;;11.48;100.00;98641.73;213876;1289;139967;-92
2023/03/13 20:47:21;;;;;;;14.90;6.60;;;;;;;11.51;100.00;98643.94;213805;1291;139254;-89
2023/03/13 20:52:22;;;;;;;13.10;6.20;;;;;;;11.56;100.00;98639.76;213846;1294;138509;-89
2023/03/13 20:57:22;;;;;;;12.10;6.70;;;;;;;11.62;100.00;98637.20;213197;1289;138842;-89
2023/03/13 21:02:23;;;;;;;11.20;5.50;;;;;;;11.70;100.00;98638.92;213886;1289;138921;-90
2023/03/13 21:07:23;;;;;;;11.60;5.50;;;;;;;11.73;100.00;98639.88;213315;1288;139472;-89
2023/03/13 21:12:24;;;;;;;12.90;5.50;;;;;;;11.78;100.00;98633.07;213879;1293;139205;-88
2023/03/13 21:17:25;;;;;;;11.00;5.40;;;;;;;11.83;100.00;98639.34;213451;1292;138977;-88
2023/03/13 21:22:28;;;;;;;11.70;5.40;;;;;;;11.86;100.00;98628.63;213950;1292;138811;-91
2023/03/13 21:27:28;;;;;;;11.90;5.30;;;;;;;11.90;100.00;98616.73;213468;1289;139468;-89
2023/03/13 21:32:29;;;;;;;13.20;5.20;;;;;;;11.95;100.00;98603.46;214179;1291;138797;-90
2023/03/13 21:37:30;;;;;;;11.10;4.80;;;;;;;11.99;100.00;98587.83;213718;1291;139426;-90
2023/03/13 21:42:32;;;;;;;10.90;4.80;;;;;;;12.03;100.00;98575.47;214515;1289;139295;-88
2023/03/13 21:47:35;;;;;;;11.30;5.50;;;;;;;12.06;100.00;98567.29;213413;1294;139751;-89
2023/03/13 21:52:37;;;;;;;10.10;4.50;;;;;;;12.08;100.00;98562.73;214130;1293;110654;-89
2023/03/13 21:57:38;;;;;;;11.80;5.80;;;;;;;12.12;100.00;98551.38;213568;1294;139180;-91
2023/03/13 22:02:39;;;;;;;8.00;3.60;;;;;;;12.16;100.00;98532.77;213883;1295;138860;-91
2023/03/13 22:07:40;;;;;;;12.40;5.60;;;;;;;12.20;100.00;98511.14;213366;1293;138787;-91
2023/03/13 22:12:40;;;;;;;10.50;4.80;;;;;;;12.25;100.00;98499.50;213941;1289;138925;-90
2023/03/13 22:17:41;;;;;;;10.40;4.30;;;;;;;12.30;100.00;98491.33;213315;1292;139408;-90
2023/03/13 22:22:41;;;;;;;9.50;3.80;;;;;;;12.33;99.96;98500.23;214188;1289;97956;-91
2023/03/13 22:27:42;;;;;;;9.90;4.20;;;;;;;12.38;99.46;98508.77;213621;1294;138804;-89
2023/03/13 22:32:42;;;;;;;10.70;4.30;;;;;;;12.47;98.66;98503.51;214255;1290;139405;-92
2023/03/13 22:37:44;;;;;;;10.80;4.20;;;;;;;12.55;98.12;98498.39;213815;1292;139521;-92
2023/03/13 22:42:44;;;;;;;11.50;3.70;;;;;;;12.62;97.48;98503.45;214229;1290;139629;-88
2023/03/13 22:47:45;;;;;;;9.10;3.30;;;;;;;12.72;95.98;98494.66;214112;1293;138735;-90